Terminal Aerodrome Forecast
Issued by NWS

Home | Current Version | Previous Version | Text Only | Print | Product List | Glossary On
Versions: 1 2 3 4 5 6 7 8 9 10 11 12 13 14 15 16 17 18 19 20 21 22 23 24 25 26 27 28 29 30 31 32 33 34
000
FTUS46 KSEW 231340 AAA
TAFBFI
TAF AMD
KBFI 231340Z 2314/2412 17005KT P6SM SCT020 OVC050
      TEMPO 2315/2319 SCT020 OVC030
     FM231900 18006KT P6SM VCSH OVC025
     FM232300 19007KT P6SM VCSH OVC035
     FM240700 17009KT P6SM OVC020=

USA.gov is the U.S. government's official web portal to all federal, state and local government web resources and services.